createdAt,value
2023-02-24T00:02:05.319Z,163.60
2023-02-24T00:04:39.508Z,163.60
2023-02-24T00:07:12.786Z,159.68
2023-02-24T00:09:40.264Z,152.07
2023-02-24T00:12:12.751Z,155.73
2023-02-24T00:14:43.629Z,167.80
2023-02-24T00:17:15.666Z,163.88
2023-02-24T00:19:43.136Z,158.38
2023-02-24T00:22:10.409Z,169.57
2023-02-24T00:24:37.523Z,154.50
2023-02-24T00:27:07.909Z,153.32
2023-02-24T00:29:37.690Z,165.80
2023-02-24T00:32:07.270Z,160.98
2023-02-24T00:34:37.572Z,158.75
2023-02-24T00:37:07.067Z,162.07
2023-02-24T00:39:35.799Z,164.15
2023-02-24T00:42:06.012Z,148.55
2023-02-24T00:44:37.819Z,158.38
2023-02-24T00:47:08.683Z,165.85
2023-02-24T00:49:42.148Z,149.95
2023-02-24T00:52:15.572Z,145.85
2023-02-24T00:54:44.120Z,170.43
2023-02-24T00:57:11.684Z,145.73
2023-02-24T00:59:39.266Z,144.40
2023-02-24T01:02:11.523Z,156.82
2023-02-24T01:04:38.750Z,150.50
2023-02-24T01:07:11.174Z,147.70
2023-02-24T01:09:41.444Z,149.20
2023-02-24T01:12:31.971Z,166.50
2023-02-24T01:14:58.930Z,162.25
2023-02-24T01:17:25.900Z,178.52
2023-02-24T01:19:53.333Z,155.00
2023-02-24T01:22:21.321Z,165.32
2023-02-24T01:24:48.809Z,159.98
2023-02-24T01:27:20.749Z,167.02
2023-02-24T01:29:48.365Z,147.63
2023-02-24T01:32:20.847Z,140.40
2023-02-24T01:34:52.070Z,156.68
2023-02-24T01:37:20.516Z,149.15
2023-02-24T01:39:48.370Z,140.15
2023-02-24T01:42:19.971Z,144.32
2023-02-24T01:44:47.535Z,148.15
2023-02-24T01:47:18.193Z,145.98
2023-02-24T01:49:48.343Z,137.38
2023-02-24T01:52:30.632Z,141.75
2023-02-24T01:55:07.169Z,140.25
2023-02-24T01:57:38.771Z,154.48
2023-02-24T02:00:12.251Z,139.70
2023-02-24T02:02:42.735Z,141.48
2023-02-24T02:05:11.594Z,155.90
2023-02-24T02:07:40.454Z,148.07
2023-02-24T02:10:10.071Z,140.93
2023-02-24T02:12:44.628Z,137.60
2023-02-24T02:15:20.248Z,138.38
2023-02-24T02:18:08.105Z,147.02
2023-02-24T02:21:32.668Z,137.82
2023-02-24T02:24:20.467Z,132.80
2023-02-24T02:27:21.165Z,139.68
2023-02-24T02:30:34.734Z,132.70
2023-02-24T02:33:39.967Z,129.52
2023-02-24T02:36:24.618Z,126.03
2023-02-24T02:39:08.715Z,137.70
2023-02-24T02:41:56.317Z,138.73
2023-02-24T02:44:41.672Z,136.63
2023-02-24T02:47:26.993Z,137.77
2023-02-24T02:50:36.004Z,128.05
2023-02-24T02:53:12.528Z,145.88
2023-02-24T02:55:53.547Z,130.90
2023-02-24T02:58:26.397Z,146.32
2023-02-24T03:01:04.587Z,131.88
2023-02-24T03:03:47.004Z,136.45
2023-02-24T03:06:28.272Z,137.57
2023-02-24T03:09:12.530Z,127.22
2023-02-24T03:11:40.285Z,127.80
2023-02-24T03:14:12.164Z,137.60
2023-02-24T03:16:46.229Z,139.48
2023-02-24T03:19:17.809Z,136.30
2023-02-24T03:21:48.540Z,128.45
2023-02-24T03:24:15.787Z,145.18
2023-02-24T03:27:06.372Z,139.00
2023-02-24T03:29:48.562Z,129.82
2023-02-24T03:32:51.312Z,136.43
2023-02-24T03:35:24.412Z,144.27
2023-02-24T03:37:53.370Z,129.77
2023-02-24T03:40:21.168Z,135.27
2023-02-24T03:42:52.531Z,142.05
2023-02-24T03:45:22.907Z,133.85
2023-02-24T03:47:54.144Z,136.73
2023-02-24T03:50:22.227Z,139.85
2023-02-24T03:53:35.709Z,132.02
2023-02-24T03:56:45.917Z,136.00
2023-02-24T03:59:49.359Z,136.75
2023-02-24T04:02:26.771Z,156.80
2023-02-24T04:05:13.808Z,122.68
2023-02-24T04:07:53.178Z,140.00
2023-02-24T04:10:31.595Z,127.63
2023-02-24T04:13:19.646Z,130.27
2023-02-24T04:15:59.077Z,125.32
2023-02-24T04:18:31.118Z,130.57
2023-02-24T04:21:01.108Z,136.68
2023-02-24T04:23:38.720Z,128.55
2023-02-24T04:26:07.101Z,143.38
2023-02-24T04:28:35.702Z,135.07
2023-02-24T04:31:10.179Z,132.48
2023-02-24T04:33:41.042Z,139.90
2023-02-24T04:36:09.206Z,142.52
2023-02-24T04:38:36.609Z,139.43
2023-02-24T04:41:03.821Z,134.68
2023-02-24T04:43:30.873Z,147.20
2023-02-24T04:45:57.933Z,137.52
2023-02-24T04:48:25.146Z,137.93
2023-02-24T04:50:55.224Z,130.85
2023-02-24T04:53:27.383Z,147.52
2023-02-24T04:55:56.253Z,132.73
2023-02-24T04:58:29.667Z,134.73
2023-02-24T05:00:57.365Z,164.05
2023-02-24T05:03:28.382Z,131.15
2023-02-24T05:06:00.361Z,138.00
2023-02-24T05:08:29.727Z,135.90
2023-02-24T05:10:58.896Z,127.63
2023-02-24T05:13:29.147Z,132.52
2023-02-24T05:16:08.073Z,136.02
2023-02-24T05:18:38.679Z,134.98
2023-02-24T05:21:29.484Z,136.23
2023-02-24T05:24:06.551Z,131.52
2023-02-24T05:26:37.039Z,132.73
2023-02-24T05:29:06.937Z,135.05
2023-02-24T05:31:34.858Z,123.00
2023-02-24T05:34:05.933Z,126.72
2023-02-24T05:36:45.948Z,133.30
2023-02-24T05:39:19.269Z,131.05
2023-02-24T05:41:49.381Z,128.03
2023-02-24T05:44:23.634Z,132.63
2023-02-24T05:46:58.416Z,128.17
2023-02-24T05:49:35.749Z,126.73
2023-02-24T05:52:09.057Z,138.32
2023-02-24T05:54:42.744Z,127.70
2023-02-24T05:57:13.782Z,123.43
2023-02-24T05:59:42.137Z,134.98
2023-02-24T06:02:13.265Z,124.57
2023-02-24T06:04:54.218Z,135.30
2023-02-24T06:07:25.793Z,126.10
2023-02-24T06:09:57.162Z,131.77
2023-02-24T06:12:36.210Z,124.75
2023-02-24T06:15:07.770Z,123.78
2023-02-24T06:17:35.208Z,121.10
2023-02-24T06:20:04.818Z,130.00
2023-02-24T06:22:33.843Z,130.35
2023-02-24T06:25:01.072Z,118.78
2023-02-24T06:27:28.067Z,128.17
2023-02-24T06:29:56.966Z,123.73
2023-02-24T06:32:26.550Z,122.88
2023-02-24T06:34:54.753Z,122.38
2023-02-24T06:37:23.419Z,124.07
2023-02-24T06:39:50.591Z,125.20
2023-02-24T06:42:17.733Z,128.80
2023-02-24T06:44:45.380Z,122.87
2023-02-24T06:47:14.771Z,129.23
2023-02-24T06:49:45.044Z,126.07
2023-02-24T06:52:18.756Z,123.63
2023-02-24T06:54:49.529Z,131.32
2023-02-24T06:57:16.925Z,122.45
2023-02-24T06:59:44.039Z,124.10
2023-02-24T07:02:11.708Z,130.40
2023-02-24T07:04:44.158Z,126.50
2023-02-24T07:07:14.561Z,122.23
2023-02-24T07:09:42.858Z,128.07
2023-02-24T07:12:12.754Z,119.47
2023-02-24T07:14:40.699Z,122.18
2023-02-24T07:17:08.963Z,123.90
2023-02-24T07:19:36.941Z,121.63
2023-02-24T07:22:04.257Z,127.67
2023-02-24T07:24:39.469Z,118.78
2023-02-24T07:27:22.402Z,121.25
2023-02-24T07:29:53.368Z,124.05
2023-02-24T07:32:22.664Z,123.78
2023-02-24T07:34:49.894Z,130.20
2023-02-24T07:37:17.089Z,162.98
2023-02-24T07:39:44.401Z,144.67
2023-02-24T07:42:13.931Z,163.55
2023-02-24T07:44:42.771Z,161.93
2023-02-24T07:47:10.181Z,127.15
2023-02-24T07:49:39.652Z,129.60
2023-02-24T07:52:08.330Z,134.40
2023-02-24T07:54:35.821Z,135.07
2023-02-24T07:57:03.297Z,133.40
2023-02-24T07:59:37.752Z,136.52
2023-02-24T08:02:07.823Z,136.67
2023-02-24T08:04:36.528Z,132.82
2023-02-24T08:07:04.731Z,134.20
2023-02-24T08:09:46.741Z,132.30
2023-02-24T08:12:22.002Z,136.40
2023-02-24T08:14:52.430Z,133.85
2023-02-24T08:17:21.482Z,133.57
2023-02-24T08:19:50.977Z,137.82
2023-02-24T08:22:21.006Z,140.50
2023-02-24T08:24:53.487Z,134.38
2023-02-24T08:27:25.666Z,134.60
2023-02-24T08:29:58.385Z,138.50
2023-02-24T08:32:27.539Z,139.02
2023-02-24T08:35:03.032Z,139.68
2023-02-24T08:37:39.876Z,138.93
2023-02-24T08:40:31.139Z,141.23
2023-02-24T08:43:17.597Z,152.77
2023-02-24T08:45:50.976Z,142.25
2023-02-24T08:48:26.484Z,144.73
2023-02-24T08:50:57.932Z,143.32
2023-02-24T08:53:31.539Z,143.27
2023-02-24T08:56:09.754Z,149.18
2023-02-24T08:58:49.129Z,150.02
2023-02-24T09:01:19.869Z,145.35
2023-02-24T09:03:55.259Z,145.55
2023-02-24T09:06:38.865Z,147.73
2023-02-24T09:09:18.816Z,147.68
2023-02-24T09:11:47.763Z,148.20
2023-02-24T09:14:28.233Z,155.48
2023-02-24T09:17:02.484Z,153.23
2023-02-24T09:19:48.345Z,158.30
2023-02-24T09:22:57.464Z,161.85
2023-02-24T09:25:40.954Z,163.30
2023-02-24T09:28:09.525Z,162.13
2023-02-24T09:30:53.460Z,157.82
2023-02-24T09:33:23.651Z,167.90
2023-02-24T09:36:09.989Z,177.35
2023-02-24T09:38:57.877Z,179.35
2023-02-24T09:42:08.227Z,175.85
2023-02-24T09:44:45.499Z,172.43
2023-02-24T09:47:37.164Z,181.07
2023-02-24T09:50:46.913Z,182.88
2023-02-24T09:53:17.654Z,180.75
2023-02-24T09:56:25.315Z,192.82
2023-02-24T09:59:10.425Z,194.43
2023-02-24T10:01:46.732Z,187.40
2023-02-24T10:04:49.422Z,211.52
2023-02-24T10:07:38.659Z,198.73
2023-02-24T10:10:19.900Z,205.65
2023-02-24T10:13:18.685Z,214.23
2023-02-24T10:15:58.699Z,216.50
2023-02-24T10:18:48.752Z,221.20
2023-02-24T10:21:48.472Z,227.82
2023-02-24T10:24:41.387Z,229.05
2023-02-24T10:27:33.404Z,233.63
2023-02-24T10:30:41.065Z,238.63
2023-02-24T10:33:37.871Z,241.98
2023-02-24T10:36:13.539Z,239.05
2023-02-24T10:38:45.478Z,252.98
2023-02-24T10:41:17.227Z,256.38
2023-02-24T10:43:56.391Z,269.42
2023-02-24T10:46:42.893Z,259.42
2023-02-24T10:49:16.944Z,275.00
2023-02-24T10:51:53.284Z,262.50
2023-02-24T10:57:19.389Z,281.25
2023-02-24T11:00:20.952Z,277.88
2023-02-24T11:03:11.369Z,271.48
2023-02-24T11:06:08.478Z,291.75
2023-02-24T11:08:44.338Z,290.23
2023-02-24T11:11:52.500Z,300.70
2023-02-24T11:14:38.849Z,293.52
2023-02-24T11:17:30.003Z,272.77
2023-02-24T11:20:19.584Z,285.08
2023-02-24T11:22:52.140Z,272.20
2023-02-24T11:25:39.674Z,296.25
2023-02-24T11:28:26.942Z,280.00
2023-02-24T11:31:25.198Z,291.58
2023-02-24T11:34:07.670Z,293.65
2023-02-24T11:36:54.580Z,281.48
2023-02-24T11:39:56.268Z,280.33
2023-02-24T11:42:36.784Z,280.65
2023-02-24T11:45:55.263Z,287.75
2023-02-24T11:48:39.976Z,291.33
2023-02-24T11:51:17.024Z,300.92
2023-02-24T11:53:55.831Z,302.52
2023-02-24T11:56:44.558Z,303.98
2023-02-24T11:59:42.699Z,310.73
2023-02-24T12:03:05.135Z,306.23
2023-02-24T12:05:40.642Z,297.13
2023-02-24T12:08:23.845Z,315.05
2023-02-24T12:11:01.961Z,312.42
2023-02-24T12:13:55.629Z,320.60
2023-02-24T12:16:45.942Z,328.98
2023-02-24T12:19:37.560Z,331.27
2023-02-24T12:22:16.717Z,331.70
2023-02-24T12:24:52.527Z,345.27
2023-02-24T12:27:54.928Z,339.23
2023-02-24T12:30:49.241Z,354.00
2023-02-24T12:33:44.969Z,362.67
2023-02-24T12:37:07.899Z,377.38
2023-02-24T12:39:48.141Z,368.33
2023-02-24T12:43:12.690Z,398.85
2023-02-24T12:45:54.216Z,399.35
2023-02-24T12:48:58.437Z,419.67
2023-02-24T12:51:49.291Z,430.63
2023-02-24T12:54:49.755Z,433.17
2023-02-24T12:57:42.480Z,441.98
2023-02-24T13:00:26.223Z,446.40
2023-02-24T13:03:13.969Z,456.25
2023-02-24T13:06:03.240Z,451.83
2023-02-24T13:09:14.932Z,463.20
2023-02-24T13:12:27.378Z,450.02
2023-02-24T13:14:54.820Z,434.88
2023-02-24T13:17:27.111Z,466.88
2023-02-24T13:19:55.855Z,436.00
2023-02-24T13:22:32.768Z,433.13
2023-02-24T13:25:08.616Z,445.80
2023-02-24T13:27:38.975Z,424.00
2023-02-24T13:30:11.271Z,429.70
2023-02-24T13:32:45.747Z,423.98
2023-02-24T13:35:15.581Z,407.33
2023-02-24T13:37:46.511Z,402.40
2023-02-24T13:40:18.942Z,410.80
2023-02-24T13:42:59.499Z,401.17
2023-02-24T13:45:39.824Z,439.38
2023-02-24T13:48:42.559Z,386.63
2023-02-24T13:51:46.521Z,397.95
2023-02-24T13:55:00.489Z,411.27
2023-02-24T13:57:49.018Z,406.55
2023-02-24T14:00:40.925Z,423.60
2023-02-24T14:03:21.144Z,406.58
2023-02-24T14:05:49.790Z,411.95
2023-02-24T14:08:25.763Z,425.73
2023-02-24T14:10:57.044Z,411.27
2023-02-24T14:13:34.108Z,411.90
2023-02-24T14:16:08.198Z,443.67
2023-02-24T14:18:36.709Z,437.98
2023-02-24T14:21:04.152Z,420.42
2023-02-24T14:23:35.464Z,427.40
2023-02-24T14:26:07.572Z,437.15
2023-02-24T14:28:40.052Z,436.02
2023-02-24T14:31:17.041Z,443.52
2023-02-24T14:33:46.216Z,437.98
2023-02-24T14:36:25.501Z,421.83
2023-02-24T14:39:16.348Z,417.27
2023-02-24T14:41:44.873Z,415.25
2023-02-24T14:44:30.504Z,402.70
2023-02-24T14:47:03.012Z,400.67
2023-02-24T14:49:36.407Z,411.23
2023-02-24T14:52:10.729Z,419.23
2023-02-24T14:55:17.716Z,399.98
2023-02-24T14:58:09.004Z,397.25
2023-02-24T15:00:43.754Z,380.40
2023-02-24T15:03:39.005Z,380.85
2023-02-24T15:06:20.066Z,381.58
2023-02-24T15:08:52.554Z,408.67
2023-02-24T15:11:23.513Z,397.92
2023-02-24T15:14:02.697Z,395.48
2023-02-24T15:16:40.033Z,385.90
2023-02-24T15:19:37.152Z,379.52
2023-02-24T15:22:41.547Z,381.15
2023-02-24T15:25:37.106Z,373.55
2023-02-24T15:28:31.388Z,381.20
2023-02-24T15:31:16.114Z,377.75
2023-02-24T15:33:53.818Z,365.70
2023-02-24T15:36:28.975Z,376.17
2023-02-24T15:39:05.046Z,357.52
2023-02-24T15:41:49.082Z,360.65
2023-02-24T15:44:32.258Z,357.73
2023-02-24T15:47:12.426Z,343.52
2023-02-24T15:49:42.156Z,332.92
2023-02-24T15:52:10.338Z,339.60
2023-02-24T15:54:42.722Z,349.20
2023-02-24T15:57:13.320Z,337.70
2023-02-24T15:59:41.347Z,335.38
2023-02-24T16:02:19.942Z,343.58
2023-02-24T16:04:48.511Z,322.73
2023-02-24T16:07:31.106Z,323.45
2023-02-24T16:09:59.942Z,320.58
2023-02-24T16:12:33.226Z,317.27
2023-02-24T16:15:04.336Z,307.88
2023-02-24T16:17:42.915Z,317.65
2023-02-24T16:20:18.572Z,317.85
2023-02-24T16:22:46.619Z,305.25
2023-02-24T16:27:50.422Z,333.48
2023-02-24T16:30:22.463Z,294.95
2023-02-24T16:32:51.230Z,290.17
2023-02-24T16:35:19.622Z,309.73
2023-02-24T16:37:48.965Z,303.30
2023-02-24T16:40:28.113Z,287.92
2023-02-24T16:42:55.255Z,280.58
2023-02-24T16:45:26.815Z,290.60
2023-02-24T16:47:57.679Z,265.00
2023-02-24T16:50:41.724Z,261.23
2023-02-24T16:53:13.344Z,268.38
2023-02-24T16:55:40.404Z,251.32
2023-02-24T16:58:07.384Z,258.73
2023-02-24T17:00:34.582Z,246.35
2023-02-24T17:03:17.250Z,248.85
2023-02-24T17:05:44.638Z,240.60
2023-02-24T17:08:12.459Z,240.80
2023-02-24T17:10:40.115Z,247.70
2023-02-24T17:13:07.686Z,245.57
2023-02-24T17:15:34.730Z,248.95
2023-02-24T17:18:02.250Z,244.65
2023-02-24T17:20:29.519Z,232.70
2023-02-24T17:22:56.554Z,224.10
2023-02-24T17:25:27.018Z,224.48
2023-02-24T17:27:55.720Z,231.40
2023-02-24T17:30:30.743Z,215.27
2023-02-24T17:32:58.284Z,209.23
2023-02-24T17:35:27.132Z,221.63
2023-02-24T17:37:54.568Z,212.73
2023-02-24T17:40:22.105Z,204.90
2023-02-24T17:42:49.229Z,220.20
2023-02-24T17:45:16.453Z,212.18
2023-02-24T17:47:49.481Z,246.55
2023-02-24T17:50:17.318Z,338.27
2023-02-24T17:52:44.864Z,271.88
2023-02-24T17:55:12.554Z,280.80
2023-02-24T17:57:40.016Z,196.95
2023-02-24T18:00:10.839Z,203.23
2023-02-24T18:02:38.677Z,218.45
2023-02-24T18:05:06.605Z,244.88
2023-02-24T18:07:34.072Z,250.35
2023-02-24T18:10:02.801Z,206.45
2023-02-24T18:12:32.752Z,211.45
2023-02-24T18:15:08.387Z,191.70
2023-02-24T18:17:38.830Z,214.15
2023-02-24T18:20:08.588Z,223.93
2023-02-24T18:22:36.316Z,214.23
2023-02-24T18:25:04.275Z,260.08
2023-02-24T18:27:31.376Z,181.55
2023-02-24T18:29:58.365Z,187.18
2023-02-24T18:32:25.604Z,173.25
2023-02-24T18:34:52.691Z,173.57
2023-02-24T18:37:20.166Z,182.93
2023-02-24T18:39:47.297Z,178.70
2023-02-24T18:42:14.285Z,170.68
2023-02-24T18:44:41.273Z,167.13
2023-02-24T18:47:09.850Z,171.30
2023-02-24T18:49:37.867Z,163.23
2023-02-24T18:52:07.472Z,163.13
2023-02-24T18:54:34.932Z,191.32
2023-02-24T18:57:02.226Z,161.38
2023-02-24T18:59:29.369Z,163.57
2023-02-24T19:01:57.089Z,171.43
2023-02-24T19:04:25.132Z,172.23
2023-02-24T19:06:52.223Z,168.90
2023-02-24T19:09:21.792Z,176.85
2023-02-24T19:11:50.218Z,177.25
2023-02-24T19:14:17.541Z,159.98
2023-02-24T19:16:45.410Z,165.60
2023-02-24T19:19:16.782Z,163.63
2023-02-24T19:21:48.442Z,153.73
2023-02-24T19:24:17.145Z,153.55
2023-02-24T19:26:45.910Z,154.68
2023-02-24T19:29:13.744Z,152.77
2023-02-24T19:31:41.016Z,210.27
2023-02-24T19:34:13.150Z,203.13
2023-02-24T19:36:41.378Z,229.02
2023-02-24T19:39:15.950Z,204.63
2023-02-24T19:41:43.211Z,166.43
2023-02-24T19:44:11.027Z,183.40
2023-02-24T19:46:39.088Z,225.70
2023-02-24T19:49:06.819Z,197.77
2023-02-24T19:51:35.417Z,215.43
2023-02-24T19:54:03.649Z,179.55
2023-02-24T19:56:35.698Z,180.40
2023-02-24T19:59:06.633Z,159.20
2023-02-24T20:01:34.117Z,182.95
2023-02-24T20:04:04.037Z,165.32
2023-02-24T20:06:37.642Z,168.38
2023-02-24T20:09:17.179Z,151.05
2023-02-24T20:11:45.946Z,156.85
2023-02-24T20:14:14.435Z,158.10
2023-02-24T20:16:43.003Z,148.80
2023-02-24T20:19:12.221Z,154.70
2023-02-24T20:21:40.375Z,157.70
2023-02-24T20:24:13.879Z,139.82
2023-02-24T20:26:46.366Z,145.55
2023-02-24T20:29:15.078Z,143.77
2023-02-24T20:31:42.537Z,174.17
2023-02-24T20:34:10.728Z,148.13
2023-02-24T20:36:38.261Z,187.00
2023-02-24T20:39:08.613Z,161.60
2023-02-24T20:41:35.657Z,155.80
2023-02-24T20:44:02.801Z,175.50
2023-02-24T20:46:32.370Z,163.73
2023-02-24T20:49:04.141Z,172.70
2023-02-24T20:51:32.805Z,140.68
2023-02-24T20:54:00.479Z,172.20
2023-02-24T20:56:33.195Z,172.63
2023-02-24T20:59:04.515Z,176.50
2023-02-24T21:01:33.043Z,170.60
2023-02-24T21:04:00.869Z,157.27
2023-02-24T21:06:29.067Z,171.23
2023-02-24T21:08:57.453Z,171.83
2023-02-24T21:11:24.896Z,167.60
2023-02-24T21:13:52.615Z,154.13
2023-02-24T21:16:21.236Z,129.57
2023-02-24T21:18:50.600Z,109.57
2023-02-24T21:21:19.541Z,119.57
2023-02-24T21:23:47.177Z,110.80
2023-02-24T21:26:14.898Z,105.93
2023-02-24T21:28:42.032Z,112.10
2023-02-24T21:31:16.056Z,105.43
2023-02-24T21:33:43.568Z,115.37
2023-02-24T21:36:15.853Z,109.43
2023-02-24T21:38:42.938Z,123.57
2023-02-24T21:41:14.974Z,115.30
2023-02-24T21:43:44.241Z,180.47
2023-02-24T21:46:14.395Z,199.40
2023-02-24T21:48:42.019Z,112.30
2023-02-24T21:51:11.967Z,112.27
2023-02-24T21:53:41.941Z,120.10
2023-02-24T21:56:17.461Z,106.23
2023-02-24T21:58:54.127Z,114.03
2023-02-24T22:01:32.838Z,111.00
2023-02-24T22:04:03.244Z,107.00
2023-02-24T22:06:32.124Z,112.73
2023-02-24T22:09:00.385Z,107.83
2023-02-24T22:11:27.681Z,109.60
2023-02-24T22:13:54.658Z,114.33
2023-02-24T22:16:25.344Z,103.40
2023-02-24T22:18:54.656Z,102.13
2023-02-24T22:21:28.109Z,101.60
2023-02-24T22:23:59.904Z,111.83
2023-02-24T22:26:29.141Z,109.57
2023-02-24T22:28:56.779Z,108.40
2023-02-24T22:31:29.087Z,105.90
2023-02-24T22:33:56.805Z,108.83
2023-02-24T22:36:27.507Z,106.47
2023-02-24T22:38:59.603Z,105.27
2023-02-24T22:41:33.110Z,113.80
2023-02-24T22:44:02.198Z,103.00
2023-02-24T22:46:33.435Z,110.67
2023-02-24T22:49:00.883Z,105.70
2023-02-24T22:51:28.520Z,105.37
2023-02-24T22:53:56.444Z,105.23
2023-02-24T22:56:27.201Z,106.40
2023-02-24T22:58:55.100Z,104.57
2023-02-24T23:01:32.176Z,101.83
2023-02-24T23:04:01.489Z,98.90
2023-02-24T23:06:29.275Z,105.47
2023-02-24T23:08:58.423Z,99.63
2023-02-24T23:11:31.787Z,105.37
2023-02-24T23:14:04.011Z,102.30
2023-02-24T23:16:34.289Z,105.30
2023-02-24T23:19:06.684Z,106.07
2023-02-24T23:21:38.444Z,105.10
2023-02-24T23:24:08.113Z,102.17
2023-02-24T23:26:43.701Z,100.07
2023-02-24T23:29:14.445Z,100.27
2023-02-24T23:31:42.426Z,99.03
2023-02-24T23:34:10.272Z,99.17
2023-02-24T23:36:40.891Z,107.37
2023-02-24T23:39:09.182Z,100.30
2023-02-24T23:41:38.073Z,106.87
2023-02-24T23:44:06.185Z,106.87
2023-02-24T23:46:35.200Z,107.10
2023-02-24T23:49:02.340Z,98.30
2023-02-24T23:51:45.713Z,104.73
2023-02-24T23:54:14.497Z,97.83
2023-02-24T23:56:41.569Z,112.63
2023-02-24T23:59:08.759Z,103.67
